地図

経路データ

SID SEASON NUMBER BASIN SUBBASIN NAME ISO_TIME NATURE LAT LON WMO_WIND WMO_PRES WMO_AGENCY TRACK_TYPE DIST2LAND LANDFALL IFLAG USA_AGENCY USA_ATCF_ID USA_LAT USA_LON USA_RECORD USA_STATUS USA_WIND USA_PRES USA_SSHS USA_R34_NE USA_R34_SE USA_R34_SW USA_R34_NW USA_R50_NE USA_R50_SE USA_R50_SW USA_R50_NW USA_R64_NE USA_R64_SE USA_R64_SW USA_R64_NW USA_POCI USA_ROCI USA_RMW USA_EYE TOKYO_LAT TOKYO_LON TOKYO_GRADE TOKYO_WIND TOKYO_PRES TOKYO_R50_DIR TOKYO_R50_LONG TOKYO_R50_SHORT TOKYO_R30_DIR TOKYO_R30_LONG TOKYO_R30_SHORT TOKYO_LAND CMA_LAT CMA_LON CMA_CAT CMA_WIND CMA_PRES HKO_LAT HKO_LON HKO_CAT HKO_WIND HKO_PRES NEWDELHI_LAT NEWDELHI_LON NEWDELHI_GRADE NEWDELHI_WIND NEWDELHI_PRES NEWDELHI_CI NEWDELHI_DP NEWDELHI_POCI REUNION_LAT REUNION_LON REUNION_TYPE REUNION_WIND REUNION_PRES REUNION_TNUM REUNION_CI REUNION_RMW REUNION_R34_NE REUNION_R34_SE REUNION_R34_SW REUNION_R34_NW REUNION_R50_NE REUNION_R50_SE REUNION_R50_SW REUNION_R50_NW REUNION_R64_NE REUNION_R64_SE REUNION_R64_SW REUNION_R64_NW BOM_LAT BOM_LON BOM_TYPE BOM_WIND BOM_PRES BOM_TNUM BOM_CI BOM_RMW BOM_R34_NE BOM_R34_SE BOM_R34_SW BOM_R34_NW BOM_R50_NE BOM_R50_SE BOM_R50_SW BOM_R50_NW BOM_R64_NE BOM_R64_SE BOM_R64_SW BOM_R64_NW BOM_ROCI BOM_POCI BOM_EYE BOM_POS_METHOD BOM_PRES_METHOD NADI_LAT NADI_LON NADI_CAT NADI_WIND NADI_PRES WELLINGTON_LAT WELLINGTON_LON WELLINGTON_WIND WELLINGTON_PRES DS824_LAT DS824_LON DS824_STAGE DS824_WIND DS824_PRES TD9636_LAT TD9636_LON TD9636_STAGE TD9636_WIND TD9636_PRES TD9635_LAT TD9635_LON TD9635_WIND TD9635_PRES TD9635_ROCI NEUMANN_LAT NEUMANN_LON NEUMANN_CLASS NEUMANN_WIND NEUMANN_PRES MLC_LAT MLC_LON MLC_CLASS MLC_WIND MLC_PRES USA_GUST BOM_GUST BOM_GUST_PER REUNION_GUST REUNION_GUST_PER USA_SEAHGT USA_SEARAD_NE USA_SEARAD_SE USA_SEARAD_SW USA_SEARAD_NW STORM_SPEED STORM_DIR
1946213N20089 1946 42 NI BB NOT_NAMED 1946-07-31 15:00:00 NR 20.3000 88.5000 main 145 134 __________O___ -1 20.3000 88.5000 1 3 325
1946213N20089 1946 42 NI BB NOT_NAMED 1946-07-31 18:00:00 TS 20.4164 88.4157 main 134 111 O________OP___ jtwc_io IO071946 20.4000 88.4000 -1 20.4000 88.4000 TC 20.4328 88.4313 1 3 333
1946213N20089 1946 42 NI BB NOT_NAMED 1946-07-31 21:00:00 TS 20.5611 88.3601 main 111 100 P________PP___ IO071946 20.5600 88.3600 -1 20.5600 88.3600 TC 20.5625 88.3601 1 3 339
1946213N20089 1946 42 NI BB NOT_NAMED 1946-08-01 00:00:00 TS 20.6944 88.2935 main 100 89 O________OP___ jtwc_io IO071946 20.7000 88.3000 -1 20.7000 88.3000 TC 25 20.6859 88.2838 1 3 330
1946213N20089 1946 42 NI BB NOT_NAMED 1946-08-01 03:00:00 TS 20.8050 88.2050 main 89 78 P________PO___ IO071946 20.8075 88.2075 -1 20.8075 88.2075 TC 25 20.8000 88.2000 1 3 320
1946213N20089 1946 42 NI BB NOT_NAMED 1946-08-01 06:00:00 TS 20.9010 88.1024 main 78 67 O________OP___ jtwc_io IO071946 20.9000 88.1000 -1 20.9000 88.1000 TC 25 20.9031 88.1071 1 3 316
1946213N20089 1946 42 NI BB NOT_NAMED 1946-08-01 09:00:00 TS 21.0000 88.0025 main 70 63 P________PP___ IO071946 21.0000 88.0000 -1 21.0000 88.0000 TC 25 21.0000 88.0074 1 3 316
1946213N20089 1946 42 NI BB NOT_NAMED 1946-08-01 12:00:00 TS 21.0990 87.9013 main 63 55 O________OP___ jtwc_io IO071946 21.1000 87.9000 -1 21.1000 87.9000 TC 25 21.0969 87.9040 1 3 316
1946213N20089 1946 42 NI BB NOT_NAMED 1946-08-01 15:00:00 TS 21.2000 87.8000 main 55 44 P________PO___ IO071946 21.2000 87.8000 -1 21.2000 87.8000 TC 25 21.2000 87.8000 1 3 319
1946213N20089 1946 42 NI BB NOT_NAMED 1946-08-01 18:00:00 TS 21.2949 87.7200 main 44 33 O________OP___ jtwc_io IO071946 21.3000 87.7000 -1 21.3000 87.7000 TC 25 21.2848 87.7600 1 2 322
1946213N20089 1946 42 NI BB NOT_NAMED 1946-08-01 21:00:00 TS 21.3838 87.6469 main 30 15 P________PP___ IO071946 21.3850 87.6149 -1 21.3850 87.6149 TC 25 21.3816 87.7109 1 3 320
1946213N20089 1946 42 NI BB NOT_NAMED 1946-08-02 00:00:00 TS 21.5042 87.5355 main 15 0 O________OP___ jtwc_io IO071946 21.5000 87.5000 -1 21.5000 87.5000 TC 25 21.5126 87.6064 1 4 319
1946213N20089 1946 42 NI BB NOT_NAMED 1946-08-02 03:00:00 TS 21.6699 87.3730 main 0 0 P________PO___ IO071946 21.6548 87.3596 -1 21.6548 87.3596 TC 25 21.7000 87.4000 1 6 315
1946213N20089 1946 42 NI BB NOT_NAMED 1946-08-02 06:00:00 TS 21.9280 87.0820 main 0 0 O________OP___ jtwc_io IO071946 21.9000 87.1000 -1 21.9000 87.1000 TC 25 21.9841 87.0460 1 9 313
1946213N20089 1946 42 NI BB NOT_NAMED 1946-08-02 09:00:00 TS 22.3019 86.6308 main 0 0 P________PP___ IO071946 22.2926 86.6530 -1 22.2926 86.6530 TC 25 22.3205 86.5864 1 12 310
1946213N20089 1946 42 NI BB NOT_NAMED 1946-08-02 12:00:00 TS 22.6905 86.0861 main 0 0 O________OP___ jtwc_io IO071946 22.7000 86.1000 -1 22.7000 86.1000 TC 25 22.6715 86.0584 1 12 304
1946213N20089 1946 42 NI BB NOT_NAMED 1946-08-02 15:00:00 TS 22.9816 85.5381 main 0 0 P________PO___ IO071946 22.9724 85.5571 -1 22.9724 85.5571 TC 25 23.0000 85.5000 1 11 298
1946213N20089 1946 42 NI BB NOT_NAMED 1946-08-02 18:00:00 TS 23.2216 85.0011 main 0 0 O________OP___ jtwc_io IO071946 23.2000 85.0000 -1 23.2000 85.0000 TC 25 23.2648 85.0032 1 11 297
1946213N20089 1946 42 NI BB NOT_NAMED 1946-08-02 21:00:00 TS 23.4717 84.4703 main 0 0 P________PP___ IO071946 23.4571 84.4648 -1 23.4571 84.4648 TC 25 23.5007 84.4813 1 11 296
1946213N20089 1946 42 NI BB NOT_NAMED 1946-08-03 00:00:00 TS 23.7038 83.9063 main 0 0 O________OP___ jtwc_io IO071946 23.7000 83.9000 -1 23.7000 83.9000 TC 25 23.7113 83.9188 1 12 292
1946213N20089 1946 42 NI BB NOT_NAMED 1946-08-03 03:00:00 TS 23.9097 83.2915 main 0 0 P________PO___ IO071946 23.9146 83.2873 -1 23.9146 83.2873 TC 25 23.9000 83.3000 1 13 288
1946213N20089 1946 42 NI BB NOT_NAMED 1946-08-03 06:00:00 TS 24.0962 82.5971 main 0 0 O________OP___ jtwc_io IO071946 24.1000 82.6000 -1 24.1000 82.6000 TC 25 24.0885 82.5914 1 14 285
1946213N20089 1946 42 NI BB NOT_NAMED 1946-08-03 09:00:00 TS 24.2612 81.8150 main 0 0 P________PP___ IO071946 24.2651 81.8074 -1 24.2651 81.8074 TC 25 24.2535 81.8302 1 15 282
1946213N20089 1946 42 NI BB NOT_NAMED 1946-08-03 12:00:00 TS 24.3972 81.0180 main 0 0 O________OP___ jtwc_io IO071946 24.4000 81.0000 -1 24.4000 81.0000 TC 25 24.3915 81.0539 1 14 280
1946213N20089 1946 42 NI BB NOT_NAMED 1946-08-03 15:00:00 TS 24.5098 80.2799 main 0 0 P________PO___ IO071946 24.5147 80.2699 -1 24.5147 80.2699 TC 25 24.5000 80.3000 1 13 279
1946213N20089 1946 42 NI BB NOT_NAMED 1946-08-03 18:00:00 TS 24.5936 79.6108 main 0 0 O________OP___ jtwc_io IO071946 24.6000 79.6000 -1 24.6000 79.6000 TC 25 24.5809 79.6326 1 12 277
1946213N20089 1946 42 NI BB NOT_NAMED 1946-08-03 21:00:00 TS 24.6546 78.9971 main 0 0 P________PP___ IO071946 24.6644 78.9999 -1 24.6644 78.9999 TC 25 24.6350 78.9914 1 11 275
1946213N20089 1946 42 NI BB NOT_NAMED 1946-08-04 00:00:00 TS 24.6905 78.3849 main 0 0 O________OP___ jtwc_io IO071946 24.7000 78.4000 -1 24.7000 78.4000 TC 25 24.6716 78.3547 1 12 272
1946213N20089 1946 42 NI AS NOT_NAMED 1946-08-04 03:00:00 TS 24.6998 77.7148 main 0 0 P________PO___ IO071946 24.6998 77.7222 -1 24.6998 77.7222 TC 25 24.7000 77.7000 1 13 271
1946213N20089 1946 42 NI AS NOT_NAMED 1946-08-04 06:00:00 TS 24.7106 76.9974 main 0 0 O________OP___ jtwc_io IO071946 24.7000 77.0000 -1 24.7000 77.0000 TC 25 24.7318 76.9922 1 13 272
1946213N20089 1946 42 NI AS NOT_NAMED 1946-08-04 09:00:00 TS 24.7522 76.2550 main 0 0 P________PP___ IO071946 24.7498 76.2502 -1 24.7498 76.2502 TC 25 24.7569 76.2646 1 14 273
1946213N20089 1946 42 NI AS NOT_NAMED 1946-08-04 12:00:00 TS 24.7929 75.5099 main 0 0 O________OP___ jtwc_io IO071946 24.8000 75.5000 -1 24.8000 75.5000 TC 25 24.7786 75.5297 1 13 272
1946213N20089 1946 42 NI AS NOT_NAMED 1946-08-04 15:00:00 TS 24.7997 74.7948 main 0 0 P________PO___ IO071946 24.7996 74.7922 -1 24.7996 74.7922 TC 25 24.8000 74.8000 1 13 271
1946213N20089 1946 42 NI AS NOT_NAMED 1946-08-04 18:00:00 TS 24.8095 74.0940 main 0 0 O________OP___ jtwc_io IO071946 24.8000 74.1000 -1 24.8000 74.1000 TC 25 24.8239 74.0850 1 13 272
1946213N20089 1946 42 NI AS NOT_NAMED 1946-08-04 21:00:00 TS 24.8431 73.3943 main 0 0 P________PP___ IO071946 24.8382 73.4028 -1 24.8382 73.4028 TC 25 24.8496 73.3830 1 13 274
1946213N20089 1946 42 NI AS NOT_NAMED 1946-08-05 00:00:00 TS 24.8877 72.6947 main 0 0 O________OP___ jtwc_io IO071946 24.9000 72.7000 -1 24.9000 72.7000 TC 25 24.8755 72.6894 1 13 273
1946213N20089 1946 42 NI AS NOT_NAMED 1946-08-05 03:00:00 NR 24.9000 72.0000 main 0 __________O___ IO071946 -1 TC 24.9000 72.0000 1 13 271

IBTrACS Databaseについて

本データベースは、米国NOAAが公開する1842年以降の世界の熱帯低気圧のベストトラックデータアーカイブInternational Best Track Archive for Climate Stewardship (IBTrACS)を、ウェブで閲覧しやすい形式に変換したものです。

最終更新日:2021-12-03